sensor_id;sensor_type;location;lat;lon;timestamp;P1;durP1;ratioP1;P2;durP2;ratioP2
36137;SDS011;67787;50.074;21.904;2024-02-21T00:01:08;10.10;;;5.90;;
36137;SDS011;67787;50.074;21.904;2024-02-21T00:03:36;13.80;;;6.80;;
36137;SDS011;67787;50.074;21.904;2024-02-21T00:06:04;13.90;;;7.30;;
36137;SDS011;67787;50.074;21.904;2024-02-21T00:08:32;15.40;;;8.20;;
36137;SDS011;67787;50.074;21.904;2024-02-21T00:11:00;15.40;;;7.80;;
36137;SDS011;67787;50.074;21.904;2024-02-21T00:13:28;11.60;;;6.10;;
36137;SDS011;67787;50.074;21.904;2024-02-21T00:15:56;11.40;;;5.80;;
36137;SDS011;67787;50.074;21.904;2024-02-21T00:18:24;13.90;;;7.20;;
36137;SDS011;67787;50.074;21.904;2024-02-21T00:20:56;12.00;;;6.00;;
36137;SDS011;67787;50.074;21.904;2024-02-21T00:23:24;13.40;;;7.00;;
36137;SDS011;67787;50.074;21.904;2024-02-21T00:25:52;10.00;;;6.40;;
36137;SDS011;67787;50.074;21.904;2024-02-21T00:28:20;13.20;;;6.90;;
36137;SDS011;67787;50.074;21.904;2024-02-21T00:30:48;11.10;;;5.90;;
36137;SDS011;67787;50.074;21.904;2024-02-21T00:33:17;10.40;;;6.30;;
36137;SDS011;67787;50.074;21.904;2024-02-21T00:35:45;13.50;;;6.70;;
36137;SDS011;67787;50.074;21.904;2024-02-21T00:38:13;13.70;;;7.20;;
36137;SDS011;67787;50.074;21.904;2024-02-21T00:40:41;11.90;;;6.40;;
36137;SDS011;67787;50.074;21.904;2024-02-21T00:43:10;11.50;;;5.90;;
36137;SDS011;67787;50.074;21.904;2024-02-21T00:45:38;10.50;;;6.20;;
36137;SDS011;67787;50.074;21.904;2024-02-21T00:48:06;13.10;;;6.80;;
36137;SDS011;67787;50.074;21.904;2024-02-21T00:50:34;12.10;;;6.70;;
36137;SDS011;67787;50.074;21.904;2024-02-21T00:53:02;13.20;;;6.40;;
36137;SDS011;67787;50.074;21.904;2024-02-21T00:55:29;11.80;;;6.70;;
36137;SDS011;67787;50.074;21.904;2024-02-21T00:57:57;12.80;;;7.50;;
36137;SDS011;67787;50.074;21.904;2024-02-21T01:00:25;16.20;;;7.10;;
36137;SDS011;67787;50.074;21.904;2024-02-21T01:02:53;12.80;;;6.90;;
36137;SDS011;67787;50.074;21.904;2024-02-21T01:05:21;13.90;;;7.80;;
36137;SDS011;67787;50.074;21.904;2024-02-21T01:07:51;14.10;;;7.20;;
36137;SDS011;67787;50.074;21.904;2024-02-21T01:10:20;10.70;;;7.00;;
36137;SDS011;67787;50.074;21.904;2024-02-21T01:12:48;10.30;;;6.90;;
36137;SDS011;67787;50.074;21.904;2024-02-21T01:15:15;11.30;;;7.10;;
36137;SDS011;67787;50.074;21.904;2024-02-21T01:17:43;13.20;;;7.70;;
36137;SDS011;67787;50.074;21.904;2024-02-21T01:20:11;12.80;;;7.20;;
36137;SDS011;67787;50.074;21.904;2024-02-21T01:22:39;13.00;;;7.50;;
36137;SDS011;67787;50.074;21.904;2024-02-21T01:25:07;12.40;;;6.80;;
36137;SDS011;67787;50.074;21.904;2024-02-21T01:27:35;13.50;;;7.10;;
36137;SDS011;67787;50.074;21.904;2024-02-21T01:30:04;16.20;;;7.50;;
36137;SDS011;67787;50.074;21.904;2024-02-21T01:32:33;13.30;;;7.90;;
36137;SDS011;67787;50.074;21.904;2024-02-21T01:35:01;12.50;;;7.40;;
36137;SDS011;67787;50.074;21.904;2024-02-21T01:37:29;15.30;;;7.80;;
36137;SDS011;67787;50.074;21.904;2024-02-21T01:39:58;19.70;;;9.10;;
36137;SDS011;67787;50.074;21.904;2024-02-21T01:42:25;13.30;;;8.30;;
36137;SDS011;67787;50.074;21.904;2024-02-21T01:44:53;13.30;;;7.80;;
36137;SDS011;67787;50.074;21.904;2024-02-21T01:47:21;10.90;;;6.70;;
36137;SDS011;67787;50.074;21.904;2024-02-21T01:49:49;13.20;;;7.10;;
36137;SDS011;67787;50.074;21.904;2024-02-21T01:52:17;10.10;;;6.80;;
36137;SDS011;67787;50.074;21.904;2024-02-21T01:54:46;11.20;;;6.30;;
36137;SDS011;67787;50.074;21.904;2024-02-21T01:57:15;13.80;;;6.90;;
36137;SDS011;67787;50.074;21.904;2024-02-21T01:59:43;13.10;;;6.60;;
36137;SDS011;67787;50.074;21.904;2024-02-21T02:02:11;10.90;;;5.80;;
36137;SDS011;67787;50.074;21.904;2024-02-21T02:04:39;11.40;;;6.00;;
36137;SDS011;67787;50.074;21.904;2024-02-21T02:07:07;9.10;;;5.10;;
36137;SDS011;67787;50.074;21.904;2024-02-21T02:09:36;13.60;;;8.10;;
36137;SDS011;67787;50.074;21.904;2024-02-21T02:12:04;11.80;;;6.90;;
36137;SDS011;67787;50.074;21.904;2024-02-21T02:14:32;9.90;;;5.50;;
36137;SDS011;67787;50.074;21.904;2024-02-21T02:17:00;9.00;;;5.40;;
36137;SDS011;67787;50.074;21.904;2024-02-21T02:19:28;8.10;;;5.30;;
36137;SDS011;67787;50.074;21.904;2024-02-21T02:21:59;6.60;;;4.60;;
36137;SDS011;67787;50.074;21.904;2024-02-21T02:24:32;8.00;;;4.40;;
36137;SDS011;67787;50.074;21.904;2024-02-21T02:27:00;9.90;;;5.30;;
36137;SDS011;67787;50.074;21.904;2024-02-21T02:29:28;7.70;;;5.30;;
36137;SDS011;67787;50.074;21.904;2024-02-21T02:31:56;10.30;;;6.00;;
36137;SDS011;67787;50.074;21.904;2024-02-21T02:34:24;7.90;;;4.60;;
36137;SDS011;67787;50.074;21.904;2024-02-21T02:36:52;9.10;;;4.90;;
36137;SDS011;67787;50.074;21.904;2024-02-21T02:39:19;10.70;;;5.40;;
36137;SDS011;67787;50.074;21.904;2024-02-21T02:41:47;8.80;;;4.30;;
36137;SDS011;67787;50.074;21.904;2024-02-21T02:44:15;10.10;;;4.90;;
36137;SDS011;67787;50.074;21.904;2024-02-21T02:46:43;10.70;;;4.90;;
36137;SDS011;67787;50.074;21.904;2024-02-21T02:49:11;10.00;;;5.10;;
36137;SDS011;67787;50.074;21.904;2024-02-21T02:51:43;10.70;;;6.40;;
36137;SDS011;67787;50.074;21.904;2024-02-21T02:54:11;10.00;;;6.30;;
36137;SDS011;67787;50.074;21.904;2024-02-21T02:56:39;8.30;;;4.90;;
36137;SDS011;67787;50.074;21.904;2024-02-21T02:59:07;10.40;;;5.80;;
36137;SDS011;67787;50.074;21.904;2024-02-21T03:01:35;7.80;;;4.70;;
36137;SDS011;67787;50.074;21.904;2024-02-21T03:04:03;9.70;;;5.80;;
36137;SDS011;67787;50.074;21.904;2024-02-21T03:06:31;9.20;;;6.40;;
36137;SDS011;67787;50.074;21.904;2024-02-21T03:08:59;11.60;;;6.40;;
36137;SDS011;67787;50.074;21.904;2024-02-21T03:11:27;12.80;;;6.30;;
36137;SDS011;67787;50.074;21.904;2024-02-21T03:13:58;9.10;;;5.80;;
36137;SDS011;67787;50.074;21.904;2024-02-21T03:16:26;7.10;;;4.70;;
36137;SDS011;67787;50.074;21.904;2024-02-21T03:18:54;7.50;;;4.40;;
36137;SDS011;67787;50.074;21.904;2024-02-21T03:21:22;8.30;;;4.70;;
36137;SDS011;67787;50.074;21.904;2024-02-21T03:23:50;8.30;;;4.40;;
36137;SDS011;67787;50.074;21.904;2024-02-21T03:26:17;7.60;;;4.00;;
36137;SDS011;67787;50.074;21.904;2024-02-21T03:28:45;6.50;;;4.00;;
36137;SDS011;67787;50.074;21.904;2024-02-21T03:31:14;8.10;;;4.10;;
36137;SDS011;67787;50.074;21.904;2024-02-21T03:33:42;10.10;;;4.10;;
36137;SDS011;67787;50.074;21.904;2024-02-21T03:36:14;7.00;;;3.80;;
36137;SDS011;67787;50.074;21.904;2024-02-21T03:38:43;6.40;;;4.10;;
36137;SDS011;67787;50.074;21.904;2024-02-21T03:41:11;9.70;;;4.00;;
36137;SDS011;67787;50.074;21.904;2024-02-21T03:43:39;9.00;;;3.80;;
36137;SDS011;67787;50.074;21.904;2024-02-21T03:46:07;5.90;;;3.70;;
36137;SDS011;67787;50.074;21.904;2024-02-21T03:48:35;6.60;;;4.10;;
36137;SDS011;67787;50.074;21.904;2024-02-21T03:51:04;7.10;;;4.50;;
36137;SDS011;67787;50.074;21.904;2024-02-21T03:53:32;7.00;;;3.80;;
36137;SDS011;67787;50.074;21.904;2024-02-21T03:56:01;7.90;;;4.00;;
36137;SDS011;67787;50.074;21.904;2024-02-21T03:58:31;5.70;;;3.80;;
36137;SDS011;67787;50.074;21.904;2024-02-21T04:01:00;7.20;;;4.30;;
36137;SDS011;67787;50.074;21.904;2024-02-21T04:03:29;8.70;;;4.40;;
36137;SDS011;67787;50.074;21.904;2024-02-21T04:05:58;6.60;;;4.10;;
36137;SDS011;67787;50.074;21.904;2024-02-21T04:08:26;8.00;;;3.70;;
36137;SDS011;67787;50.074;21.904;2024-02-21T04:10:54;6.20;;;4.00;;
36137;SDS011;67787;50.074;21.904;2024-02-21T04:13:22;7.60;;;4.30;;
36137;SDS011;67787;50.074;21.904;2024-02-21T04:15:50;8.10;;;4.40;;
36137;SDS011;67787;50.074;21.904;2024-02-21T04:18:18;8.90;;;4.20;;
36137;SDS011;67787;50.074;21.904;2024-02-21T04:20:46;9.60;;;4.70;;
36137;SDS011;67787;50.074;21.904;2024-02-21T04:23:14;11.70;;;4.60;;
36137;SDS011;67787;50.074;21.904;2024-02-21T04:25:42;8.30;;;4.00;;
36137;SDS011;67787;50.074;21.904;2024-02-21T04:28:10;6.50;;;3.60;;
36137;SDS011;67787;50.074;21.904;2024-02-21T04:30:38;11.70;;;4.60;;
36137;SDS011;67787;50.074;21.904;2024-02-21T04:33:06;8.50;;;4.40;;
36137;SDS011;67787;50.074;21.904;2024-02-21T04:35:35;8.90;;;4.30;;
36137;SDS011;67787;50.074;21.904;2024-02-21T04:38:04;9.30;;;4.50;;
36137;SDS011;67787;50.074;21.904;2024-02-21T04:40:32;9.70;;;4.40;;
36137;SDS011;67787;50.074;21.904;2024-02-21T04:43:00;7.10;;;4.10;;
36137;SDS011;67787;50.074;21.904;2024-02-21T04:45:28;8.80;;;4.00;;
36137;SDS011;67787;50.074;21.904;2024-02-21T04:47:56;9.10;;;4.50;;
36137;SDS011;67787;50.074;21.904;2024-02-21T04:50:24;6.80;;;3.80;;
36137;SDS011;67787;50.074;21.904;2024-02-21T04:52:52;7.80;;;4.20;;
36137;SDS011;67787;50.074;21.904;2024-02-21T04:55:20;7.50;;;3.70;;
36137;SDS011;67787;50.074;21.904;2024-02-21T04:57:48;7.50;;;3.80;;
36137;SDS011;67787;50.074;21.904;2024-02-21T05:00:15;9.00;;;3.90;;
36137;SDS011;67787;50.074;21.904;2024-02-21T05:02:43;11.50;;;4.40;;
36137;SDS011;67787;50.074;21.904;2024-02-21T05:05:11;11.30;;;4.10;;
36137;SDS011;67787;50.074;21.904;2024-02-21T05:07:39;9.70;;;4.80;;
36137;SDS011;67787;50.074;21.904;2024-02-21T05:10:08;9.00;;;4.50;;
36137;SDS011;67787;50.074;21.904;2024-02-21T05:12:37;9.30;;;4.10;;
36137;SDS011;67787;50.074;21.904;2024-02-21T05:15:05;6.60;;;3.90;;
36137;SDS011;67787;50.074;21.904;2024-02-21T05:17:33;9.00;;;4.00;;
36137;SDS011;67787;50.074;21.904;2024-02-21T05:20:02;10.10;;;5.50;;
36137;SDS011;67787;50.074;21.904;2024-02-21T05:22:30;21.50;;;11.90;;
36137;SDS011;67787;50.074;21.904;2024-02-21T05:24:58;12.30;;;6.90;;
36137;SDS011;67787;50.074;21.904;2024-02-21T05:27:26;9.60;;;5.80;;
36137;SDS011;67787;50.074;21.904;2024-02-21T05:29:54;8.40;;;5.60;;
36137;SDS011;67787;50.074;21.904;2024-02-21T05:32:22;9.40;;;5.60;;
36137;SDS011;67787;50.074;21.904;2024-02-21T05:34:50;8.50;;;5.00;;
36137;SDS011;67787;50.074;21.904;2024-02-21T05:37:18;9.60;;;4.80;;
36137;SDS011;67787;50.074;21.904;2024-02-21T05:39:46;9.30;;;3.80;;
36137;SDS011;67787;50.074;21.904;2024-02-21T05:42:14;5.30;;;3.40;;
36137;SDS011;67787;50.074;21.904;2024-02-21T05:44:42;10.50;;;4.50;;
36137;SDS011;67787;50.074;21.904;2024-02-21T05:47:10;8.30;;;4.50;;
36137;SDS011;67787;50.074;21.904;2024-02-21T05:49:39;7.90;;;4.60;;
36137;SDS011;67787;50.074;21.904;2024-02-21T05:55:30;10.50;;;6.70;;
36137;SDS011;67787;50.074;21.904;2024-02-21T05:58:03;10.30;;;5.90;;
36137;SDS011;67787;50.074;21.904;2024-02-21T06:00:41;14.70;;;6.10;;
36137;SDS011;67787;50.074;21.904;2024-02-21T06:03:08;10.80;;;5.80;;
36137;SDS011;67787;50.074;21.904;2024-02-21T06:05:37;14.80;;;6.40;;
36137;SDS011;67787;50.074;21.904;2024-02-21T06:08:06;8.60;;;5.00;;
36137;SDS011;67787;50.074;21.904;2024-02-21T06:10:34;12.00;;;6.30;;
36137;SDS011;67787;50.074;21.904;2024-02-21T06:13:02;13.70;;;6.10;;
36137;SDS011;67787;50.074;21.904;2024-02-21T06:15:30;14.50;;;6.60;;
36137;SDS011;67787;50.074;21.904;2024-02-21T06:17:58;11.10;;;5.80;;
36137;SDS011;67787;50.074;21.904;2024-02-21T06:20:26;13.00;;;5.80;;
36137;SDS011;67787;50.074;21.904;2024-02-21T06:22:54;11.70;;;6.00;;
36137;SDS011;67787;50.074;21.904;2024-02-21T06:25:21;12.30;;;6.70;;
36137;SDS011;67787;50.074;21.904;2024-02-21T06:27:49;11.50;;;5.90;;
36137;SDS011;67787;50.074;21.904;2024-02-21T06:30:17;15.20;;;6.90;;
36137;SDS011;67787;50.074;21.904;2024-02-21T06:32:45;9.20;;;5.20;;
36137;SDS011;67787;50.074;21.904;2024-02-21T06:35:14;10.90;;;4.90;;
36137;SDS011;67787;50.074;21.904;2024-02-21T06:37:42;9.00;;;4.60;;
36137;SDS011;67787;50.074;21.904;2024-02-21T06:40:10;9.80;;;4.80;;
36137;SDS011;67787;50.074;21.904;2024-02-21T06:42:38;10.00;;;5.30;;
36137;SDS011;67787;50.074;21.904;2024-02-21T06:45:06;10.00;;;6.00;;
36137;SDS011;67787;50.074;21.904;2024-02-21T06:47:34;10.60;;;5.50;;
36137;SDS011;67787;50.074;21.904;2024-02-21T06:50:02;12.50;;;6.10;;
36137;SDS011;67787;50.074;21.904;2024-02-21T06:52:30;11.80;;;6.20;;
36137;SDS011;67787;50.074;21.904;2024-02-21T06:54:58;16.30;;;6.30;;
36137;SDS011;67787;50.074;21.904;2024-02-21T06:57:28;12.00;;;6.20;;
36137;SDS011;67787;50.074;21.904;2024-02-21T06:59:57;13.50;;;6.60;;
36137;SDS011;67787;50.074;21.904;2024-02-21T07:02:25;12.40;;;6.40;;
36137;SDS011;67787;50.074;21.904;2024-02-21T07:04:52;13.70;;;5.70;;
36137;SDS011;67787;50.074;21.904;2024-02-21T07:07:21;15.30;;;6.00;;
36137;SDS011;67787;50.074;21.904;2024-02-21T07:09:49;12.10;;;5.90;;
36137;SDS011;67787;50.074;21.904;2024-02-21T07:12:19;13.60;;;6.60;;
36137;SDS011;67787;50.074;21.904;2024-02-21T07:14:55;11.90;;;5.30;;
36137;SDS011;67787;50.074;21.904;2024-02-21T07:17:23;15.30;;;6.80;;
36137;SDS011;67787;50.074;21.904;2024-02-21T07:19:51;15.90;;;7.20;;
36137;SDS011;67787;50.074;21.904;2024-02-21T07:22:19;15.60;;;6.90;;
36137;SDS011;67787;50.074;21.904;2024-02-21T07:24:47;18.80;;;10.30;;
36137;SDS011;67787;50.074;21.904;2024-02-21T07:27:15;25.00;;;14.20;;
36137;SDS011;67787;50.074;21.904;2024-02-21T07:29:43;26.00;;;14.70;;
36137;SDS011;67787;50.074;21.904;2024-02-21T07:32:15;30.90;;;16.80;;
36137;SDS011;67787;50.074;21.904;2024-02-21T07:34:43;18.60;;;8.70;;
36137;SDS011;67787;50.074;21.904;2024-02-21T07:37:11;18.30;;;8.70;;
36137;SDS011;67787;50.074;21.904;2024-02-21T07:39:38;28.20;;;11.40;;
36137;SDS011;67787;50.074;21.904;2024-02-21T07:42:06;19.90;;;8.80;;
36137;SDS011;67787;50.074;21.904;2024-02-21T07:44:34;20.30;;;8.60;;
36137;SDS011;67787;50.074;21.904;2024-02-21T07:47:03;18.50;;;8.90;;
36137;SDS011;67787;50.074;21.904;2024-02-21T07:49:31;16.10;;;8.50;;
36137;SDS011;67787;50.074;21.904;2024-02-21T07:52:00;14.90;;;8.00;;
36137;SDS011;67787;50.074;21.904;2024-02-21T07:54:28;16.30;;;7.60;;
36137;SDS011;67787;50.074;21.904;2024-02-21T07:56:56;15.60;;;6.80;;
36137;SDS011;67787;50.074;21.904;2024-02-21T07:59:24;13.80;;;6.60;;
36137;SDS011;67787;50.074;21.904;2024-02-21T08:01:56;13.90;;;6.00;;
36137;SDS011;67787;50.074;21.904;2024-02-21T08:04:25;13.30;;;5.90;;
36137;SDS011;67787;50.074;21.904;2024-02-21T08:06:53;13.20;;;6.30;;
36137;SDS011;67787;50.074;21.904;2024-02-21T08:09:23;11.60;;;5.90;;
36137;SDS011;67787;50.074;21.904;2024-02-21T08:11:51;12.60;;;5.60;;
36137;SDS011;67787;50.074;21.904;2024-02-21T08:14:18;12.70;;;6.30;;
36137;SDS011;67787;50.074;21.904;2024-02-21T08:16:48;14.00;;;5.50;;
36137;SDS011;67787;50.074;21.904;2024-02-21T08:19:16;8.90;;;4.10;;
36137;SDS011;67787;50.074;21.904;2024-02-21T08:21:45;12.50;;;5.80;;
36137;SDS011;67787;50.074;21.904;2024-02-21T08:24:14;12.20;;;5.90;;
36137;SDS011;67787;50.074;21.904;2024-02-21T08:26:42;10.60;;;5.30;;
36137;SDS011;67787;50.074;21.904;2024-02-21T08:29:14;12.40;;;5.90;;
36137;SDS011;67787;50.074;21.904;2024-02-21T08:31:42;12.00;;;4.90;;
36137;SDS011;67787;50.074;21.904;2024-02-21T08:34:10;13.00;;;5.00;;
36137;SDS011;67787;50.074;21.904;2024-02-21T08:36:38;12.00;;;5.00;;
36137;SDS011;67787;50.074;21.904;2024-02-21T08:39:06;9.90;;;4.90;;
36137;SDS011;67787;50.074;21.904;2024-02-21T08:41:35;10.80;;;4.60;;
36137;SDS011;67787;50.074;21.904;2024-02-21T08:44:27;11.50;;;5.10;;
36137;SDS011;67787;50.074;21.904;2024-02-21T08:46:55;10.30;;;5.70;;
36137;SDS011;67787;50.074;21.904;2024-02-21T08:49:24;14.10;;;6.20;;
36137;SDS011;67787;50.074;21.904;2024-02-21T08:52:01;17.00;;;7.30;;
36137;SDS011;67787;50.074;21.904;2024-02-21T08:54:31;17.10;;;6.20;;
36137;SDS011;67787;50.074;21.904;2024-02-21T08:57:02;16.10;;;6.30;;
36137;SDS011;67787;50.074;21.904;2024-02-21T08:59:31;12.00;;;6.10;;
36137;SDS011;67787;50.074;21.904;2024-02-21T09:01:59;13.90;;;5.50;;
36137;SDS011;67787;50.074;21.904;2024-02-21T09:04:27;13.40;;;6.00;;
36137;SDS011;67787;50.074;21.904;2024-02-21T09:06:55;15.40;;;5.20;;
36137;SDS011;67787;50.074;21.904;2024-02-21T09:09:23;14.70;;;5.90;;
36137;SDS011;67787;50.074;21.904;2024-02-21T09:11:55;9.90;;;5.80;;
36137;SDS011;67787;50.074;21.904;2024-02-21T09:14:22;12.20;;;5.70;;
36137;SDS011;67787;50.074;21.904;2024-02-21T09:16:50;13.50;;;5.20;;
36137;SDS011;67787;50.074;21.904;2024-02-21T09:19:18;12.70;;;5.00;;
36137;SDS011;67787;50.074;21.904;2024-02-21T09:21:46;7.90;;;3.70;;
36137;SDS011;67787;50.074;21.904;2024-02-21T09:24:14;7.90;;;4.00;;
36137;SDS011;67787;50.074;21.904;2024-02-21T09:26:42;9.50;;;4.30;;
36137;SDS011;67787;50.074;21.904;2024-02-21T09:29:10;12.10;;;4.30;;
36137;SDS011;67787;50.074;21.904;2024-02-21T09:31:38;10.60;;;4.80;;
36137;SDS011;67787;50.074;21.904;2024-02-21T09:34:06;8.20;;;3.70;;
36137;SDS011;67787;50.074;21.904;2024-02-21T09:36:34;7.30;;;4.20;;
36137;SDS011;67787;50.074;21.904;2024-02-21T09:39:02;7.20;;;3.90;;
36137;SDS011;67787;50.074;21.904;2024-02-21T09:41:30;9.30;;;4.20;;
36137;SDS011;67787;50.074;21.904;2024-02-21T09:43:58;8.40;;;3.80;;
36137;SDS011;67787;50.074;21.904;2024-02-21T09:46:31;8.20;;;3.50;;
36137;SDS011;67787;50.074;21.904;2024-02-21T09:49:16;12.90;;;3.00;;
36137;SDS011;67787;50.074;21.904;2024-02-21T09:51:53;8.30;;;3.40;;
36137;SDS011;67787;50.074;21.904;2024-02-21T09:54:23;7.10;;;4.00;;
36137;SDS011;67787;50.074;21.904;2024-02-21T09:56:51;6.70;;;3.50;;
36137;SDS011;67787;50.074;21.904;2024-02-21T09:59:19;6.80;;;3.70;;
36137;SDS011;67787;50.074;21.904;2024-02-21T10:01:47;7.60;;;3.80;;
36137;SDS011;67787;50.074;21.904;2024-02-21T10:04:15;5.50;;;3.20;;
36137;SDS011;67787;50.074;21.904;2024-02-21T10:06:44;6.90;;;3.00;;
36137;SDS011;67787;50.074;21.904;2024-02-21T10:09:24;7.40;;;3.20;;
36137;SDS011;67787;50.074;21.904;2024-02-21T10:12:09;6.10;;;3.40;;
36137;SDS011;67787;50.074;21.904;2024-02-21T10:14:40;7.70;;;3.60;;
36137;SDS011;67787;50.074;21.904;2024-02-21T10:17:08;7.80;;;4.40;;
36137;SDS011;67787;50.074;21.904;2024-02-21T10:19:42;8.30;;;4.50;;
36137;SDS011;67787;50.074;21.904;2024-02-21T10:22:10;10.60;;;5.40;;
36137;SDS011;67787;50.074;21.904;2024-02-21T10:24:38;9.70;;;3.70;;
36137;SDS011;67787;50.074;21.904;2024-02-21T10:27:09;7.90;;;4.10;;
36137;SDS011;67787;50.074;21.904;2024-02-21T10:29:41;7.70;;;3.70;;
36137;SDS011;67787;50.074;21.904;2024-02-21T10:32:10;6.70;;;3.00;;
36137;SDS011;67787;50.074;21.904;2024-02-21T10:34:41;10.80;;;3.20;;
36137;SDS011;67787;50.074;21.904;2024-02-21T10:37:11;8.10;;;3.60;;
36137;SDS011;67787;50.074;21.904;2024-02-21T10:39:41;6.80;;;2.90;;
36137;SDS011;67787;50.074;21.904;2024-02-21T10:42:10;9.00;;;3.50;;
36137;SDS011;67787;50.074;21.904;2024-02-21T10:44:40;7.20;;;3.50;;
36137;SDS011;67787;50.074;21.904;2024-02-21T10:47:10;9.90;;;4.40;;
36137;SDS011;67787;50.074;21.904;2024-02-21T10:49:41;8.20;;;3.50;;
36137;SDS011;67787;50.074;21.904;2024-02-21T10:52:22;8.00;;;3.50;;
36137;SDS011;67787;50.074;21.904;2024-02-21T10:55:10;9.40;;;3.60;;
36137;SDS011;67787;50.074;21.904;2024-02-21T10:57:43;6.70;;;3.10;;
36137;SDS011;67787;50.074;21.904;2024-02-21T11:00:11;8.40;;;3.10;;
36137;SDS011;67787;50.074;21.904;2024-02-21T11:03:46;6.90;;;3.20;;
36137;SDS011;67787;50.074;21.904;2024-02-21T11:06:17;6.90;;;3.00;;
36137;SDS011;67787;50.074;21.904;2024-02-21T11:08:46;10.80;;;3.30;;
36137;SDS011;67787;50.074;21.904;2024-02-21T11:11:15;5.40;;;2.90;;
36137;SDS011;67787;50.074;21.904;2024-02-21T11:14:07;6.10;;;3.40;;
36137;SDS011;67787;50.074;21.904;2024-02-21T11:16:40;7.90;;;2.90;;
36137;SDS011;67787;50.074;21.904;2024-02-21T11:19:18;7.00;;;3.50;;
36137;SDS011;67787;50.074;21.904;2024-02-21T11:21:48;7.30;;;3.30;;
36137;SDS011;67787;50.074;21.904;2024-02-21T11:24:26;6.20;;;3.30;;
36137;SDS011;67787;50.074;21.904;2024-02-21T11:27:07;6.00;;;4.00;;
36137;SDS011;67787;50.074;21.904;2024-02-21T11:29:55;6.30;;;3.10;;
36137;SDS011;67787;50.074;21.904;2024-02-21T11:32:25;5.70;;;3.20;;
36137;SDS011;67787;50.074;21.904;2024-02-21T11:34:59;5.60;;;3.10;;
36137;SDS011;67787;50.074;21.904;2024-02-21T11:37:34;7.10;;;3.20;;
36137;SDS011;67787;50.074;21.904;2024-02-21T11:42:39;7.90;;;3.50;;
36137;SDS011;67787;50.074;21.904;2024-02-21T11:45:07;8.00;;;3.60;;
36137;SDS011;67787;50.074;21.904;2024-02-21T11:47:38;7.30;;;3.00;;
36137;SDS011;67787;50.074;21.904;2024-02-21T11:50:12;4.20;;;2.80;;
36137;SDS011;67787;50.074;21.904;2024-02-21T11:52:43;5.90;;;3.30;;
36137;SDS011;67787;50.074;21.904;2024-02-21T11:55:11;7.40;;;3.70;;
36137;SDS011;67787;50.074;21.904;2024-02-21T11:57:39;6.60;;;3.20;;
36137;SDS011;67787;50.074;21.904;2024-02-21T12:00:14;10.10;;;3.70;;
36137;SDS011;67787;50.074;21.904;2024-02-21T12:02:43;7.10;;;3.30;;
36137;SDS011;67787;50.074;21.904;2024-02-21T12:05:13;6.40;;;2.80;;
36137;SDS011;67787;50.074;21.904;2024-02-21T12:07:42;5.50;;;3.30;;
36137;SDS011;67787;50.074;21.904;2024-02-21T12:10:12;6.20;;;3.10;;
36137;SDS011;67787;50.074;21.904;2024-02-21T12:12:41;5.60;;;3.10;;
36137;SDS011;67787;50.074;21.904;2024-02-21T12:15:09;5.50;;;2.80;;
36137;SDS011;67787;50.074;21.904;2024-02-21T12:17:37;6.80;;;2.80;;
36137;SDS011;67787;50.074;21.904;2024-02-21T12:20:08;4.80;;;2.60;;
36137;SDS011;67787;50.074;21.904;2024-02-21T12:22:38;4.90;;;2.30;;
36137;SDS011;67787;50.074;21.904;2024-02-21T12:25:16;6.70;;;3.50;;
36137;SDS011;67787;50.074;21.904;2024-02-21T12:27:49;7.60;;;3.30;;
36137;SDS011;67787;50.074;21.904;2024-02-21T12:30:17;5.50;;;2.70;;
36137;SDS011;67787;50.074;21.904;2024-02-21T12:32:46;3.60;;;2.20;;
36137;SDS011;67787;50.074;21.904;2024-02-21T12:35:16;3.20;;;2.00;;
36137;SDS011;67787;50.074;21.904;2024-02-21T12:37:45;6.40;;;2.50;;
36137;SDS011;67787;50.074;21.904;2024-02-21T12:40:13;7.10;;;2.70;;
36137;SDS011;67787;50.074;21.904;2024-02-21T12:42:43;6.10;;;2.70;;
36137;SDS011;67787;50.074;21.904;2024-02-21T12:45:13;6.90;;;2.90;;
36137;SDS011;67787;50.074;21.904;2024-02-21T12:47:43;4.70;;;3.10;;
36137;SDS011;67787;50.074;21.904;2024-02-21T12:50:11;6.20;;;3.00;;
36137;SDS011;67787;50.074;21.904;2024-02-21T12:52:39;5.30;;;2.70;;
36137;SDS011;67787;50.074;21.904;2024-02-21T12:55:07;6.10;;;3.10;;
36137;SDS011;67787;50.074;21.904;2024-02-21T12:57:39;4.60;;;2.50;;
36137;SDS011;67787;50.074;21.904;2024-02-21T13:00:07;4.80;;;2.80;;
36137;SDS011;67787;50.074;21.904;2024-02-21T13:02:36;4.50;;;2.80;;
36137;SDS011;67787;50.074;21.904;2024-02-21T13:05:07;7.70;;;3.00;;
36137;SDS011;67787;50.074;21.904;2024-02-21T13:07:35;6.80;;;3.50;;
36137;SDS011;67787;50.074;21.904;2024-02-21T13:10:03;9.10;;;3.60;;
36137;SDS011;67787;50.074;21.904;2024-02-21T13:12:32;5.50;;;3.40;;
36137;SDS011;67787;50.074;21.904;2024-02-21T13:15:00;8.00;;;3.40;;
36137;SDS011;67787;50.074;21.904;2024-02-21T13:17:29;6.20;;;3.60;;
36137;SDS011;67787;50.074;21.904;2024-02-21T13:19:59;7.00;;;3.20;;
36137;SDS011;67787;50.074;21.904;2024-02-21T13:22:28;8.60;;;2.70;;
36137;SDS011;67787;50.074;21.904;2024-02-21T13:24:56;5.10;;;2.70;;
36137;SDS011;67787;50.074;21.904;2024-02-21T13:27:25;5.10;;;3.60;;
36137;SDS011;67787;50.074;21.904;2024-02-21T13:29:53;4.20;;;2.50;;
36137;SDS011;67787;50.074;21.904;2024-02-21T13:32:21;8.80;;;4.40;;
36137;SDS011;67787;50.074;21.904;2024-02-21T13:34:49;9.50;;;5.10;;
36137;SDS011;67787;50.074;21.904;2024-02-21T13:37:20;13.40;;;7.10;;
36137;SDS011;67787;50.074;21.904;2024-02-21T13:39:49;8.50;;;5.10;;
36137;SDS011;67787;50.074;21.904;2024-02-21T13:42:17;10.60;;;4.50;;
36137;SDS011;67787;50.074;21.904;2024-02-21T13:44:45;13.80;;;6.40;;
36137;SDS011;67787;50.074;21.904;2024-02-21T13:47:14;16.40;;;7.90;;
36137;SDS011;67787;50.074;21.904;2024-02-21T13:49:42;18.30;;;7.90;;
36137;SDS011;67787;50.074;21.904;2024-02-21T13:52:11;15.80;;;7.20;;
36137;SDS011;67787;50.074;21.904;2024-02-21T13:54:38;12.60;;;6.50;;
36137;SDS011;67787;50.074;21.904;2024-02-21T13:57:06;12.30;;;5.90;;
36137;SDS011;67787;50.074;21.904;2024-02-21T13:59:34;13.80;;;6.40;;
36137;SDS011;67787;50.074;21.904;2024-02-21T14:02:02;10.50;;;5.70;;
36137;SDS011;67787;50.074;21.904;2024-02-21T14:04:30;12.50;;;5.30;;
36137;SDS011;67787;50.074;21.904;2024-02-21T14:06:58;11.60;;;5.00;;
36137;SDS011;67787;50.074;21.904;2024-02-21T14:09:27;10.00;;;4.70;;
36137;SDS011;67787;50.074;21.904;2024-02-21T14:11:57;8.80;;;4.00;;
36137;SDS011;67787;50.074;21.904;2024-02-21T14:14:26;12.80;;;4.40;;
36137;SDS011;67787;50.074;21.904;2024-02-21T14:16:53;11.10;;;5.70;;
36137;SDS011;67787;50.074;21.904;2024-02-21T14:19:21;11.00;;;4.70;;
36137;SDS011;67787;50.074;21.904;2024-02-21T14:21:49;10.10;;;5.20;;
36137;SDS011;67787;50.074;21.904;2024-02-21T14:24:17;9.40;;;4.80;;
36137;SDS011;67787;50.074;21.904;2024-02-21T14:26:45;10.80;;;5.30;;
36137;SDS011;67787;50.074;21.904;2024-02-21T14:29:13;9.40;;;4.70;;
36137;SDS011;67787;50.074;21.904;2024-02-21T14:31:41;13.10;;;5.30;;
36137;SDS011;67787;50.074;21.904;2024-02-21T14:34:09;7.40;;;4.10;;
36137;SDS011;67787;50.074;21.904;2024-02-21T14:36:37;8.90;;;4.10;;
36137;SDS011;67787;50.074;21.904;2024-02-21T14:39:05;14.50;;;6.70;;
36137;SDS011;67787;50.074;21.904;2024-02-21T14:41:33;18.20;;;8.10;;
36137;SDS011;67787;50.074;21.904;2024-02-21T14:44:02;21.00;;;9.80;;
36137;SDS011;67787;50.074;21.904;2024-02-21T14:46:31;18.50;;;8.70;;